To NAV CANADA Home Page Login to a new session Search on AWWS site Feedback and Comments Disclaimer Vers la page française équivalente Tips FAQ What's new on the site To the Forecasts and Observations / NOTAM section To "File a Flight Plan" website Publications and other links Update of the User's profile FIC Telephone Numbers My Weather Data Folder Route Weather Data Regional Weather Data Local Weather Data To the Forecasts and Observations / NOTAM section
Request Generated 04/30/2017 at 20:31:01 UTC . Weather information available at that time is displayed.

METAR/TAF

HAMILTON/ON    

METAR CYHM 302000Z 04022G28KT 15SM OVC007 05/03 A2999 RMK SC8 PRESFR
SLP162=
METAR CYHM 301900Z 05024G33KT 15SM BKN008 BKN026 05/03 A3001 RMK
SC6SC1 SLP171=
METAR CYHM 301800Z 05027G33KT 15SM BKN009 OVC025 04/02 A3004 RMK
SC6SC2 SLP180=

TAF AMD CYHM 302010Z 3020/0118 05018G28KT 5SM -SHRA BR OVC007 TEMPO
3020/3021 P6SM NSW SCT007 OVC012
FM302100 05018G28KT P6SM SCT005 OVC010 TEMPO 3021/3023 VRB15G30KT
11/2SM +TSRA BR OVC005CB
FM302220 05015G25KT P6SM SCT005 BKN025 TEMPO 3022/0102 2SM BR
BKN005 OVC010
FM010200 05012KT 1/2SM FG VV002 TEMPO 0102/0104 2SM BR OVC004
FM010900 10007KT 1/2SM FG BKN200
BECMG 0109/0111 6SM BR BKN050
FM011100 17010G25KT P6SM -SHRA OVC050 TEMPO 0111/0117 3SM -SHRA
BR PROB30 0111/0117 2SM TSRA BR BKN050CB
RMK NXT FCST BY 010000Z=
Your time UTC time
Weather data provided by Environment Canada and NAV CANADA